Time;durP1;ratioP1;P1;durP2;ratioP2;P2;SDS_P1;SDS_P2;PMS_P1;PMS_P2;Temp;Humidity;BMP_temperature;BMP_pressure;BME280_temperature;BME280_humidity;BME280_pressure;Samples;Min_cycle;Max_cycle;Signal;HPM_P1;HPM_P2
2023/04/24 00:01:48;;;;;;;;;;;16.20;62.80;;;;;;5027976;28;20248;-59
2023/04/24 00:04:16;;;;;;;;;;;16.20;63.00;;;;;;5029797;28;19917;-59
2023/04/24 00:06:42;;;;;;;;;;;16.10;62.90;;;;;;5029439;28;19970;-59
2023/04/24 00:09:09;;;;;;;;;;;16.00;62.60;;;;;;5029729;28;20340;-58
2023/04/24 00:11:35;;;;;;;;;;;15.90;62.40;;;;;;5029114;28;20362;-59
2023/04/24 00:14:01;;;;;;;;;;;15.80;62.70;;;;;;5029454;28;19928;-58
2023/04/24 00:16:26;;;;;;;;;;;15.80;62.80;;;;;;5029521;28;20365;-58
2023/04/24 00:18:55;;;;;;;;;;;15.70;63.00;;;;;;5029227;28;19927;-58
2023/04/24 00:21:21;;;;;;;;;;;15.70;62.90;;;;;;5028734;28;19916;-58
2023/04/24 00:23:47;;;;;;;;;;;15.60;63.20;;;;;;5029070;28;19921;-58
2023/04/24 00:26:12;;;;;;;;;;;15.50;63.00;;;;;;5029524;28;19909;-58
2023/04/24 00:28:38;;;;;;;;;;;15.50;63.10;;;;;;5028682;28;20345;-58
2023/04/24 00:31:03;;;;;;;;;;;15.40;63.30;;;;;;5028720;28;20090;-58
2023/04/24 00:33:29;;;;;;;;;;;15.40;62.90;;;;;;5028924;28;20395;-57
2023/04/24 00:35:54;;;;;;;;;;;15.30;62.80;;;;;;5028899;28;19934;-59
2023/04/24 00:38:19;;;;;;;;;;;15.20;62.90;;;;;;5028611;28;19944;-58
2023/04/24 00:40:45;;;;;;;;;;;15.30;63.30;;;;;;5028769;28;19920;-59
2023/04/24 00:43:11;;;;;;;;;;;15.30;63.70;;;;;;5028021;28;20379;-59
2023/04/24 00:45:37;;;;;;;;;;;15.30;63.80;;;;;;5028223;28;20115;-59
2023/04/24 00:48:02;;;;;;;;;;;15.30;63.80;;;;;;5028322;28;19913;-59
2023/04/24 00:50:28;;;;;;;;;;;15.40;63.70;;;;;;5028033;28;19963;-59
2023/04/24 00:52:54;;;;;;;;;;;15.30;63.40;;;;;;5046187;28;19917;-59
2023/04/24 00:55:20;;;;;;;;;;;15.20;63.60;;;;;;5041794;28;19981;-64
2023/04/24 00:57:46;;;;;;;;;;;15.30;64.10;;;;;;5028651;28;19969;-60
2023/04/24 01:00:12;;;;;;;;;;;15.30;64.00;;;;;;5028634;28;19927;-60
2023/04/24 01:02:40;;;;;;;;;;;15.40;63.70;;;;;;5028383;28;19940;-60
2023/04/24 01:05:08;;;;;;;;;;;15.40;63.60;;;;;;5028793;28;19917;-61
2023/04/24 01:07:34;;;;;;;;;;;15.40;63.70;;;;;;5027592;28;20274;-60
2023/04/24 01:09:59;;;;;;;;;;;15.40;63.80;;;;;;5028245;28;19983;-60
2023/04/24 01:12:25;;;;;;;;;;;15.40;63.90;;;;;;5027731;28;19921;-63
2023/04/24 01:14:51;;;;;;;;;;;15.60;63.90;;;;;;5028564;28;19925;-61
2023/04/24 01:17:16;;;;;;;;;;;15.60;63.90;;;;;;5027816;28;20000;-61
2023/04/24 01:19:44;;;;;;;;;;;15.70;63.80;;;;;;5028264;28;20286;-60
2023/04/24 01:22:11;;;;;;;;;;;15.70;63.70;;;;;;5027975;28;19940;-61
2023/04/24 01:24:37;;;;;;;;;;;15.70;63.70;;;;;;5028063;28;19940;-61
2023/04/24 01:27:03;;;;;;;;;;;15.60;63.80;;;;;;5027931;28;19913;-60
2023/04/24 01:29:28;;;;;;;;;;;15.70;63.80;;;;;;5028009;28;19917;-60
2023/04/24 01:31:54;;;;;;;;;;;15.80;63.80;;;;;;5028114;28;19909;-60
2023/04/24 01:34:20;;;;;;;;;;;15.80;63.80;;;;;;5027827;28;20395;-60
2023/04/24 01:36:46;;;;;;;;;;;15.80;63.70;;;;;;5027613;28;19913;-61
2023/04/24 01:39:11;;;;;;;;;;;15.90;63.80;;;;;;5027547;28;19936;-61
2023/04/24 01:41:37;;;;;;;;;;;16.00;63.70;;;;;;5026978;28;20050;-60
2023/04/24 01:44:02;;;;;;;;;;;16.00;63.50;;;;;;5027229;28;20039;-60
2023/04/24 01:46:28;;;;;;;;;;;16.00;63.20;;;;;;5027413;28;20452;-61
2023/04/24 01:48:54;;;;;;;;;;;15.90;63.00;;;;;;5025673;28;19917;-60
2023/04/24 01:51:20;;;;;;;;;;;15.80;62.80;;;;;;5032584;28;19947;-60
2023/04/24 01:53:45;;;;;;;;;;;15.80;62.60;;;;;;5029933;28;20409;-61
2023/04/24 01:56:11;;;;;;;;;;;15.70;62.50;;;;;;5026968;28;19952;-61
2023/04/24 01:58:36;;;;;;;;;;;15.50;62.40;;;;;;5026994;28;19925;-60
2023/04/24 02:01:02;;;;;;;;;;;15.40;62.90;;;;;;5027245;28;19916;-61
2023/04/24 02:03:27;;;;;;;;;;;15.40;63.20;;;;;;5025813;28;20016;-61
2023/04/24 02:05:52;;;;;;;;;;;15.40;63.10;;;;;;5027307;28;19965;-61
2023/04/24 02:08:18;;;;;;;;;;;15.30;62.70;;;;;;5025999;28;19917;-60
2023/04/24 02:10:44;;;;;;;;;;;15.30;62.80;;;;;;5027447;28;19913;-61
2023/04/24 02:13:09;;;;;;;;;;;15.20;62.80;;;;;;5026672;28;19921;-60
2023/04/24 02:15:35;;;;;;;;;;;15.10;62.60;;;;;;5027228;28;19913;-60
2023/04/24 02:18:01;;;;;;;;;;;15.00;62.80;;;;;;5027375;28;20035;-60
2023/04/24 02:20:26;;;;;;;;;;;15.00;62.90;;;;;;5026868;28;19921;-60
2023/04/24 02:22:52;;;;;;;;;;;14.90;63.20;;;;;;5026904;28;19947;-60
2023/04/24 02:25:17;;;;;;;;;;;14.90;63.00;;;;;;5025520;28;20312;-60
2023/04/24 02:27:43;;;;;;;;;;;14.90;63.00;;;;;;5026916;28;20403;-60
2023/04/24 02:30:08;;;;;;;;;;;14.90;62.90;;;;;;5026833;28;20385;-60
2023/04/24 02:32:34;;;;;;;;;;;14.80;62.90;;;;;;5026725;28;19920;-60
2023/04/24 02:34:59;;;;;;;;;;;14.80;62.90;;;;;;5027169;28;20517;-62
2023/04/24 02:37:25;;;;;;;;;;;14.80;62.80;;;;;;5026814;28;19921;-61
2023/04/24 02:39:50;;;;;;;;;;;14.70;63.10;;;;;;5026284;28;19921;-61
2023/04/24 02:42:15;;;;;;;;;;;14.80;63.10;;;;;;5026517;28;20408;-60
2023/04/24 02:44:41;;;;;;;;;;;14.70;63.10;;;;;;5026773;28;20288;-60
2023/04/24 02:47:07;;;;;;;;;;;14.70;63.40;;;;;;5026872;28;19909;-62
2023/04/24 02:49:32;;;;;;;;;;;14.70;63.20;;;;;;5027146;28;20265;-61
2023/04/24 02:51:58;;;;;;;;;;;14.70;63.10;;;;;;5035878;28;19913;-60
2023/04/24 02:54:23;;;;;;;;;;;14.70;63.00;;;;;;5026798;28;19921;-63
2023/04/24 02:56:49;;;;;;;;;;;14.70;63.00;;;;;;5027070;28;20019;-60
2023/04/24 02:59:14;;;;;;;;;;;14.70;63.20;;;;;;5027043;28;19917;-61
2023/04/24 03:01:40;;;;;;;;;;;14.70;63.10;;;;;;5026896;28;19916;-60
2023/04/24 03:04:05;;;;;;;;;;;14.60;62.80;;;;;;5026731;28;19925;-60
2023/04/24 03:06:32;;;;;;;;;;;14.60;62.90;;;;;;5026787;28;19964;-60
2023/04/24 03:08:58;;;;;;;;;;;14.50;63.10;;;;;;5026821;28;19917;-60
2023/04/24 03:11:23;;;;;;;;;;;14.60;63.50;;;;;;5026889;28;19920;-60
2023/04/24 03:13:49;;;;;;;;;;;14.70;63.80;;;;;;5028234;28;19921;-61
2023/04/24 03:16:14;;;;;;;;;;;14.70;64.20;;;;;;5030681;28;19913;-61
2023/04/24 03:18:40;;;;;;;;;;;14.90;64.40;;;;;;5030384;28;20288;-59
2023/04/24 03:21:05;;;;;;;;;;;15.00;64.50;;;;;;5030448;28;20388;-59
2023/04/24 03:23:31;;;;;;;;;;;15.20;64.50;;;;;;5030398;28;19924;-59
2023/04/24 03:25:56;;;;;;;;;;;15.30;64.30;;;;;;5030781;28;20054;-59
2023/04/24 03:28:22;;;;;;;;;;;15.40;64.30;;;;;;5030144;28;19974;-60
2023/04/24 03:30:47;;;;;;;;;;;15.50;64.20;;;;;;5030164;28;20152;-60
2023/04/24 03:33:12;;;;;;;;;;;15.70;64.20;;;;;;5029350;28;20284;-60
2023/04/24 03:35:38;;;;;;;;;;;15.70;64.20;;;;;;5029678;28;19917;-60
2023/04/24 03:38:06;;;;;;;;;;;15.80;63.90;;;;;;5029950;28;20444;-60
2023/04/24 03:40:33;;;;;;;;;;;15.80;64.00;;;;;;5027848;28;19924;-60
2023/04/24 03:42:58;;;;;;;;;;;15.90;63.90;;;;;;5029795;28;19910;-60
2023/04/24 03:45:24;;;;;;;;;;;15.90;63.60;;;;;;5029663;28;19913;-61
2023/04/24 03:47:49;;;;;;;;;;;16.00;63.70;;;;;;5029584;28;19913;-60
2023/04/24 03:50:15;;;;;;;;;;;16.10;63.70;;;;;;5029884;28;20479;-60
2023/04/24 03:52:40;;;;;;;;;;;16.20;63.60;;;;;;5029842;28;20456;-60
2023/04/24 03:55:06;;;;;;;;;;;16.20;63.70;;;;;;5029741;28;20436;-61
2023/04/24 03:57:32;;;;;;;;;;;16.20;63.50;;;;;;5028992;28;20324;-60
2023/04/24 03:59:57;;;;;;;;;;;16.20;62.90;;;;;;5029497;28;19921;-60
2023/04/24 04:02:22;;;;;;;;;;;16.20;63.00;;;;;;5029349;28;19924;-60
2023/04/24 04:04:48;;;;;;;;;;;16.10;62.60;;;;;;5028719;28;19936;-61
2023/04/24 04:07:13;;;;;;;;;;;16.10;62.40;;;;;;5029584;28;19919;-60
2023/04/24 04:09:39;;;;;;;;;;;16.10;62.80;;;;;;5028786;28;20022;-60
2023/04/24 04:12:04;;;;;;;;;;;16.10;62.90;;;;;;5029115;28;19910;-60
2023/04/24 04:14:30;;;;;;;;;;;16.20;62.90;;;;;;5029276;28;19921;-60
2023/04/24 04:16:55;;;;;;;;;;;16.10;63.00;;;;;;5028131;28;19979;-60
2023/04/24 04:19:21;;;;;;;;;;;16.10;62.80;;;;;;5029311;28;20333;-60
2023/04/24 04:21:50;;;;;;;;;;;16.10;62.70;;;;;;5029182;28;19916;-60
2023/04/24 04:24:16;;;;;;;;;;;16.10;62.20;;;;;;5029076;28;19967;-60
2023/04/24 04:26:46;;;;;;;;;;;16.10;62.40;;;;;;5028382;28;19952;-61
2023/04/24 04:29:11;;;;;;;;;;;16.20;62.60;;;;;;5029277;28;19964;-61
2023/04/24 04:31:37;;;;;;;;;;;16.20;62.60;;;;;;5029185;28;20412;-63
2023/04/24 04:34:03;;;;;;;;;;;16.20;62.70;;;;;;5029568;28;20063;-63
2023/04/24 04:36:29;;;;;;;;;;;16.20;62.80;;;;;;5028992;28;19913;-61
2023/04/24 04:38:54;;;;;;;;;;;16.30;62.70;;;;;;5028669;28;20365;-61
2023/04/24 04:41:20;;;;;;;;;;;16.20;62.40;;;;;;5028043;28;19915;-61
2023/04/24 04:43:46;;;;;;;;;;;16.30;62.50;;;;;;5028789;28;19936;-61
2023/04/24 04:46:11;;;;;;;;;;;16.30;62.80;;;;;;5026818;28;20120;-61
2023/04/24 04:48:37;;;;;;;;;;;16.40;62.70;;;;;;5027240;28;19940;-62
2023/04/24 04:51:03;;;;;;;;;;;16.50;62.90;;;;;;5026283;28;19909;-61
2023/04/24 04:53:28;;;;;;;;;;;16.50;62.80;;;;;;5028225;28;19925;-61
2023/04/24 04:55:54;;;;;;;;;;;16.60;62.70;;;;;;5028225;28;20356;-65
2023/04/24 04:58:19;;;;;;;;;;;16.60;62.70;;;;;;5028239;28;19917;-61
2023/04/24 05:00:46;;;;;;;;;;;16.70;62.90;;;;;;5024376;28;19924;-61
2023/04/24 05:03:11;;;;;;;;;;;16.70;62.80;;;;;;5028026;28;20106;-61
2023/04/24 05:05:40;;;;;;;;;;;16.70;62.00;;;;;;5028350;28;20012;-61
2023/04/24 05:08:06;;;;;;;;;;;16.70;60.70;;;;;;5027378;28;19913;-64
2023/04/24 05:10:31;;;;;;;;;;;16.60;60.60;;;;;;5024673;28;19909;-62
2023/04/24 05:12:57;;;;;;;;;;;16.60;60.90;;;;;;5028209;28;20328;-61
2023/04/24 05:15:22;;;;;;;;;;;16.50;60.00;;;;;;5028369;28;19917;-61
2023/04/24 05:17:48;;;;;;;;;;;16.50;60.20;;;;;;5028235;28;19909;-60
2023/04/24 05:20:14;;;;;;;;;;;16.40;60.60;;;;;;5028279;28;19918;-63
2023/04/24 05:22:40;;;;;;;;;;;16.40;60.30;;;;;;5028383;28;19941;-61
2023/04/24 05:25:05;;;;;;;;;;;16.40;60.40;;;;;;5028214;28;19921;-62
2023/04/24 05:27:31;;;;;;;;;;;16.50;60.70;;;;;;5027847;28;19913;-61
2023/04/24 05:29:56;;;;;;;;;;;16.30;59.50;;;;;;5027594;28;19921;-60
2023/04/24 05:32:22;;;;;;;;;;;16.30;60.00;;;;;;5026023;28;20385;-59
2023/04/24 05:34:47;;;;;;;;;;;16.40;60.50;;;;;;5028229;28;20349;-60
2023/04/24 05:37:13;;;;;;;;;;;16.50;60.40;;;;;;5027458;28;20353;-60
2023/04/24 05:39:38;;;;;;;;;;;16.50;60.20;;;;;;5027509;28;20404;-60
2023/04/24 05:42:04;;;;;;;;;;;16.50;59.30;;;;;;5025946;28;19942;-60
2023/04/24 05:44:30;;;;;;;;;;;16.60;59.90;;;;;;5027975;28;19913;-61
2023/04/24 05:46:55;;;;;;;;;;;16.60;60.30;;;;;;5027312;28;19965;-61
2023/04/24 05:49:21;;;;;;;;;;;16.70;60.50;;;;;;5027716;28;19917;-60
2023/04/24 05:51:46;;;;;;;;;;;16.70;60.30;;;;;;5036009;28;19913;-60
2023/04/24 05:54:12;;;;;;;;;;;16.70;59.90;;;;;;5047404;28;19931;-61
2023/04/24 05:56:37;;;;;;;;;;;16.60;58.70;;;;;;5047691;28;19909;-60
2023/04/24 05:59:03;;;;;;;;;;;16.70;59.00;;;;;;5038681;28;19917;-60
2023/04/24 06:01:29;;;;;;;;;;;16.70;58.80;;;;;;5027726;28;20091;-61
2023/04/24 06:03:55;;;;;;;;;;;16.70;58.90;;;;;;5035414;28;20017;-63
2023/04/24 06:06:20;;;;;;;;;;;16.80;58.70;;;;;;5022523;28;20007;-60
2023/04/24 06:08:46;;;;;;;;;;;16.70;58.20;;;;;;5011270;28;19937;-64
2023/04/24 06:11:11;;;;;;;;;;;16.70;57.40;;;;;;5019340;28;19937;-60
2023/04/24 06:13:37;;;;;;;;;;;16.80;58.30;;;;;;5031361;28;20377;-59
2023/04/24 06:16:02;;;;;;;;;;;16.90;58.40;;;;;;5022534;28;19913;-61
2023/04/24 06:18:27;;;;;;;;;;;17.10;59.00;;;;;;5011628;28;19917;-60
2023/04/24 06:20:53;;;;;;;;;;;17.20;58.70;;;;;;5024553;28;19917;-61
2023/04/24 06:23:18;;;;;;;;;;;17.20;58.30;;;;;;5021671;28;20308;-58
2023/04/24 06:25:44;;;;;;;;;;;17.20;57.40;;;;;;5019818;28;19917;-58
2023/04/24 06:28:09;;;;;;;;;;;17.20;57.20;;;;;;5019882;28;19922;-58
2023/04/24 06:30:35;;;;;;;;;;;17.20;56.90;;;;;;5018207;28;20295;-58
2023/04/24 06:33:00;;;;;;;;;;;17.30;57.10;;;;;;5026846;28;19921;-58
2023/04/24 06:35:26;;;;;;;;;;;17.20;56.40;;;;;;5027250;28;20426;-58
2023/04/24 06:37:51;;;;;;;;;;;17.20;56.20;;;;;;5037265;28;19917;-58
2023/04/24 06:40:18;;;;;;;;;;;17.20;55.80;;;;;;5016077;28;20248;-58
2023/04/24 06:42:44;;;;;;;;;;;17.30;56.30;;;;;;5028806;28;19913;-59
2023/04/24 06:45:09;;;;;;;;;;;17.30;57.10;;;;;;5026802;28;19963;-57
2023/04/24 06:47:35;;;;;;;;;;;17.40;56.70;;;;;;5027026;28;19941;-58
2023/04/24 06:50:00;;;;;;;;;;;17.40;56.50;;;;;;5030639;28;19947;-68
2023/04/24 06:52:26;;;;;;;;;;;17.40;56.20;;;;;;5031119;28;20191;-58
2023/04/24 06:54:51;;;;;;;;;;;17.30;54.80;;;;;;5031026;28;20408;-58
2023/04/24 06:57:17;;;;;;;;;;;17.30;55.00;;;;;;5029311;28;20361;-60
2023/04/24 06:59:43;;;;;;;;;;;17.30;55.00;;;;;;5031070;28;19917;-58
2023/04/24 07:02:08;;;;;;;;;;;17.30;55.40;;;;;;5030442;28;19952;-59
2023/04/24 07:04:34;;;;;;;;;;;17.30;56.10;;;;;;5030648;28;20138;-60
2023/04/24 07:06:59;;;;;;;;;;;17.30;55.50;;;;;;5030395;28;19913;-58
2023/04/24 07:09:25;;;;;;;;;;;17.40;55.70;;;;;;5031169;28;19968;-58
2023/04/24 07:11:51;;;;;;;;;;;17.40;54.80;;;;;;5028306;28;20288;-60
2023/04/24 07:14:17;;;;;;;;;;;17.40;55.00;;;;;;5010653;28;20416;-59
2023/04/24 07:16:43;;;;;;;;;;;17.40;54.20;;;;;;5010835;28;19914;-59
2023/04/24 07:19:08;;;;;;;;;;;17.30;53.40;;;;;;5010643;28;19921;-59
2023/04/24 07:21:34;;;;;;;;;;;17.30;53.30;;;;;;5010159;28;19909;-59
2023/04/24 07:24:00;;;;;;;;;;;17.30;53.10;;;;;;5025975;28;19952;-59
2023/04/24 07:26:26;;;;;;;;;;;17.40;53.20;;;;;;5010562;28;20008;-59
2023/04/24 07:28:51;;;;;;;;;;;17.20;51.70;;;;;;5010605;28;20318;-59
2023/04/24 07:31:17;;;;;;;;;;;17.30;53.00;;;;;;5010497;28;19956;-59
2023/04/24 07:33:42;;;;;;;;;;;17.50;53.60;;;;;;5010370;28;20043;-59
2023/04/24 07:36:08;;;;;;;;;;;17.50;53.60;;;;;;5010390;28;19959;-61
2023/04/24 07:38:33;;;;;;;;;;;17.50;52.30;;;;;;5016355;28;19925;-59
2023/04/24 07:40:59;;;;;;;;;;;17.60;52.40;;;;;;5027494;28;20004;-61
2023/04/24 07:43:24;;;;;;;;;;;17.70;53.00;;;;;;5025993;28;19925;-60
2023/04/24 07:45:50;;;;;;;;;;;17.80;52.20;;;;;;5028439;28;19917;-59
2023/04/24 07:48:17;;;;;;;;;;;17.70;51.60;;;;;;5026724;28;19917;-60
2023/04/24 07:50:43;;;;;;;;;;;17.80;52.20;;;;;;5029691;28;20294;-59
2023/04/24 07:53:08;;;;;;;;;;;17.80;52.30;;;;;;5029428;28;19929;-59
2023/04/24 07:55:34;;;;;;;;;;;17.80;50.40;;;;;;5029594;28;20354;-59
2023/04/24 07:57:59;;;;;;;;;;;17.60;50.00;;;;;;5028540;28;20356;-59
2023/04/24 08:00:25;;;;;;;;;;;17.70;50.70;;;;;;5027183;28;20381;-59
2023/04/24 08:02:50;;;;;;;;;;;17.90;51.50;;;;;;5028671;28;19909;-59
2023/04/24 08:05:16;;;;;;;;;;;18.00;50.90;;;;;;5029456;28;19969;-59
2023/04/24 08:07:42;;;;;;;;;;;18.10;51.00;;;;;;5027629;28;19940;-59
2023/04/24 08:10:09;;;;;;;;;;;18.20;50.70;;;;;;5029744;28;20269;-59
2023/04/24 08:12:35;;;;;;;;;;;18.20;50.10;;;;;;5023730;28;19913;-59
2023/04/24 08:15:00;;;;;;;;;;;18.20;49.60;;;;;;5026698;28;20148;-59
2023/04/24 08:17:26;;;;;;;;;;;18.20;49.50;;;;;;5026986;28;19921;-59
2023/04/24 08:19:53;;;;;;;;;;;18.30;49.50;;;;;;5026523;28;20339;-59
2023/04/24 08:22:18;;;;;;;;;;;18.30;49.30;;;;;;5028660;28;20372;-60
2023/04/24 08:24:44;;;;;;;;;;;18.20;49.20;;;;;;5028284;28;20548;-58
2023/04/24 08:27:10;;;;;;;;;;;18.20;49.20;;;;;;5028858;28;19999;-59
2023/04/24 08:29:36;;;;;;;;;;;18.20;49.50;;;;;;5027381;28;19923;-59
2023/04/24 08:32:01;;;;;;;;;;;18.20;49.70;;;;;;5016447;28;19917;-58
2023/04/24 08:34:26;;;;;;;;;;;18.20;49.70;;;;;;5028842;28;19921;-58
2023/04/24 08:36:52;;;;;;;;;;;18.30;49.70;;;;;;5029199;28;20012;-58
2023/04/24 08:39:17;;;;;;;;;;;18.20;48.70;;;;;;5028675;28;20012;-58
2023/04/24 08:41:45;;;;;;;;;;;18.20;48.60;;;;;;5029211;28;19948;-58
2023/04/24 08:44:10;;;;;;;;;;;18.30;48.50;;;;;;5028978;28;19917;-58
2023/04/24 08:46:36;;;;;;;;;;;18.40;48.60;;;;;;5031896;28;19916;-60
2023/04/24 08:49:03;;;;;;;;;;;18.70;49.00;;;;;;5039614;28;19917;-58
2023/04/24 08:51:30;;;;;;;;;;;19.00;48.90;;;;;;5040237;28;19909;-58
2023/04/24 08:53:55;;;;;;;;;;;19.20;47.80;;;;;;5028434;28;19925;-59
2023/04/24 08:56:23;;;;;;;;;;;19.20;46.10;;;;;;5028646;28;19913;-58
2023/04/24 08:58:50;;;;;;;;;;;19.20;45.60;;;;;;5028640;28;20342;-59
2023/04/24 09:01:15;;;;;;;;;;;19.30;45.90;;;;;;5024820;28;20051;-59
2023/04/24 09:03:41;;;;;;;;;;;19.40;46.40;;;;;;5028080;28;20007;-58
2023/04/24 09:06:07;;;;;;;;;;;19.50;46.10;;;;;;5027132;28;19920;-58
2023/04/24 09:08:33;;;;;;;;;;;19.50;46.10;;;;;;5024571;28;19976;-59
2023/04/24 09:11:01;;;;;;;;;;;19.50;46.20;;;;;;5026359;28;19994;-58
2023/04/24 09:13:27;;;;;;;;;;;19.40;45.60;;;;;;5021523;28;20237;-58
2023/04/24 09:15:53;;;;;;;;;;;19.10;43.90;;;;;;5028183;28;19928;-61
2023/04/24 09:18:19;;;;;;;;;;;19.10;44.80;;;;;;5026032;28;19924;-61
2023/04/24 09:21:06;;;;;;;;;;;19.00;44.90;;;;;;5028444;28;20211;-61
2023/04/24 09:23:31;;;;;;;;;;;18.90;44.60;;;;;;5027096;28;19917;-61
2023/04/24 09:25:58;;;;;;;;;;;18.60;44.00;;;;;;5027903;28;19916;-61
2023/04/24 09:28:29;;;;;;;;;;;18.60;44.50;;;;;;5022377;28;19986;-61
2023/04/24 09:31:12;;;;;;;;;;;18.70;44.60;;;;;;5027762;28;19909;-61
2023/04/24 09:33:38;;;;;;;;;;;18.70;45.10;;;;;;5025286;28;20024;-62
2023/04/24 09:36:03;;;;;;;;;;;18.80;44.90;;;;;;5027797;28;20377;-61
2023/04/24 09:38:36;;;;;;;;;;;18.90;45.10;;;;;;5031335;28;19932;-60
2023/04/24 09:41:03;;;;;;;;;;;18.90;45.30;;;;;;5034982;28;19920;-61
2023/04/24 09:43:28;;;;;;;;;;;19.00;45.80;;;;;;5047681;28;20554;-62
2023/04/24 09:45:56;;;;;;;;;;;18.90;44.30;;;;;;5031843;28;20012;-61
2023/04/24 09:48:29;;;;;;;;;;;18.90;44.00;;;;;;5027915;28;20335;-64
2023/04/24 09:50:55;;;;;;;;;;;18.70;43.30;;;;;;5026835;28;19920;-61
2023/04/24 09:53:24;;;;;;;;;;;18.80;43.40;;;;;;5021863;28;19921;-61
2023/04/24 09:55:50;;;;;;;;;;;18.80;43.70;;;;;;5032476;28;19980;-61
2023/04/24 09:58:15;;;;;;;;;;;18.90;44.20;;;;;;5036266;28;20428;-61
2023/04/24 10:00:41;;;;;;;;;;;19.00;43.50;;;;;;5029539;28;19920;-64
2023/04/24 10:03:06;;;;;;;;;;;18.90;43.50;;;;;;5040751;28;19909;-61
2023/04/24 10:05:33;;;;;;;;;;;18.80;42.90;;;;;;5047143;28;19939;-61
2023/04/24 10:08:02;;;;;;;;;;;18.90;43.70;;;;;;5047360;28;20270;-61
2023/04/24 10:10:29;;;;;;;;;;;18.90;43.60;;;;;;5047289;28;19955;-61
2023/04/24 10:12:54;;;;;;;;;;;18.90;43.50;;;;;;5016690;28;19918;-61
2023/04/24 10:15:21;;;;;;;;;;;18.80;43.80;;;;;;5007796;28;19909;-61
2023/04/24 10:17:51;;;;;;;;;;;18.80;44.00;;;;;;5007951;28;19935;-61
2023/04/24 10:20:18;;;;;;;;;;;18.60;44.30;;;;;;5007326;28;20456;-61
2023/04/24 10:22:45;;;;;;;;;;;18.60;44.70;;;;;;5006557;28;20008;-61
2023/04/24 10:25:11;;;;;;;;;;;18.40;44.20;;;;;;5007655;28;20210;-63
2023/04/24 10:27:37;;;;;;;;;;;18.30;44.00;;;;;;5010495;28;20293;-61
2023/04/24 10:30:03;;;;;;;;;;;18.40;44.50;;;;;;5038512;28;20393;-60
2023/04/24 10:32:28;;;;;;;;;;;18.30;43.80;;;;;;5027180;28;19964;-61
2023/04/24 10:34:56;;;;;;;;;;;18.40;43.90;;;;;;5039175;28;19924;-61
2023/04/24 10:37:22;;;;;;;;;;;18.50;44.00;;;;;;5046954;28;19943;-61
2023/04/24 10:39:48;;;;;;;;;;;18.70;44.30;;;;;;5047088;28;19925;-61
2023/04/24 10:42:15;;;;;;;;;;;18.80;44.20;;;;;;5046828;28;19913;-65
2023/04/24 10:44:40;;;;;;;;;;;19.10;44.10;;;;;;5043307;28;20003;-61
2023/04/24 10:47:12;;;;;;;;;;;19.20;43.50;;;;;;5027267;28;20028;-61
2023/04/24 10:49:38;;;;;;;;;;;19.20;43.20;;;;;;5019154;28;20616;-61
2023/04/24 10:52:06;;;;;;;;;;;19.30;43.00;;;;;;5018292;28;19972;-61
2023/04/24 10:54:36;;;;;;;;;;;19.20;43.30;;;;;;5027241;28;20377;-61
2023/04/24 10:57:23;;;;;;;;;;;19.20;43.60;;;;;;5022341;28;20149;-61
2023/04/24 10:59:50;;;;;;;;;;;19.20;43.40;;;;;;5026784;28;19924;-61
2023/04/24 11:02:16;;;;;;;;;;;19.10;43.90;;;;;;5024463;28;19913;-61
2023/04/24 11:04:47;;;;;;;;;;;19.10;44.60;;;;;;5026931;28;19917;-61
2023/04/24 11:07:13;;;;;;;;;;;19.00;45.20;;;;;;5010220;28;19921;-61
2023/04/24 11:09:40;;;;;;;;;;;19.00;46.40;;;;;;5007668;28;20016;-61
2023/04/24 11:12:08;;;;;;;;;;;18.80;47.40;;;;;;5025395;28;19921;-61
2023/04/24 11:14:53;;;;;;;;;;;18.60;48.30;;;;;;5020859;28;19977;-60
2023/04/24 11:17:37;;;;;;;;;;;18.40;49.20;;;;;;5016075;28;19917;-60
2023/04/24 11:20:06;;;;;;;;;;;18.20;50.40;;;;;;5037637;28;19917;-61
2023/04/24 11:22:33;;;;;;;;;;;17.90;51.00;;;;;;5046908;28;19935;-60
2023/04/24 11:25:01;;;;;;;;;;;17.80;51.60;;;;;;5032943;28;19921;-60
2023/04/24 11:27:29;;;;;;;;;;;17.50;51.90;;;;;;5026970;28;19914;-60
2023/04/24 11:29:55;;;;;;;;;;;17.40;52.80;;;;;;5026069;28;20347;-60
2023/04/24 11:32:27;;;;;;;;;;;17.40;53.80;;;;;;5019986;28;20012;-60
2023/04/24 11:34:54;;;;;;;;;;;17.50;54.80;;;;;;5008964;28;20346;-60
2023/04/24 11:37:20;;;;;;;;;;;17.70;55.40;;;;;;5016423;28;20328;-60
2023/04/24 11:39:45;;;;;;;;;;;17.80;55.90;;;;;;5030155;28;19975;-62
2023/04/24 11:42:13;;;;;;;;;;;18.10;55.80;;;;;;5022404;28;19913;-60
2023/04/24 11:44:39;;;;;;;;;;;18.20;55.90;;;;;;5010477;28;19924;-60
2023/04/24 11:47:05;;;;;;;;;;;18.10;56.10;;;;;;5019895;28;19917;-60
2023/04/24 11:49:31;;;;;;;;;;;18.00;56.50;;;;;;5029719;28;19927;-59
2023/04/24 11:51:56;;;;;;;;;;;17.80;57.00;;;;;;5026524;28;20016;-60
2023/04/24 11:54:22;;;;;;;;;;;17.70;57.50;;;;;;5030050;28;19925;-59
2023/04/24 11:56:47;;;;;;;;;;;17.50;58.20;;;;;;5036443;28;19914;-60
2023/04/24 11:59:13;;;;;;;;;;;17.30;58.80;;;;;;5025836;28;20373;-60
2023/04/24 12:01:45;;;;;;;;;;;17.20;59.80;;;;;;5029990;28;19909;-60
2023/04/24 12:04:11;;;;;;;;;;;17.10;60.60;;;;;;5026542;28;20384;-60
2023/04/24 12:06:36;;;;;;;;;;;16.90;60.60;;;;;;5029921;28;19940;-61
2023/04/24 12:09:02;;;;;;;;;;;16.90;61.00;;;;;;5038237;28;20076;-59
2023/04/24 12:11:27;;;;;;;;;;;16.80;61.50;;;;;;5035101;28;19909;-60
2023/04/24 12:13:53;;;;;;;;;;;16.80;61.30;;;;;;5033537;28;19921;-60
2023/04/24 12:16:18;;;;;;;;;;;16.70;61.10;;;;;;5048728;28;20020;-60
2023/04/24 12:18:45;;;;;;;;;;;16.70;61.60;;;;;;5032309;28;20233;-60
2023/04/24 12:21:17;;;;;;;;;;;16.50;61.50;;;;;;5028150;28;19917;-60
2023/04/24 12:23:43;;;;;;;;;;;16.50;62.10;;;;;;5029575;28;19913;-61
2023/04/24 12:26:08;;;;;;;;;;;16.30;62.30;;;;;;5029204;28;20126;-60
2023/04/24 12:28:38;;;;;;;;;;;16.30;62.50;;;;;;5029770;28;20281;-60
2023/04/24 12:31:03;;;;;;;;;;;16.20;62.30;;;;;;5029264;28;19913;-60
2023/04/24 12:33:32;;;;;;;;;;;16.10;62.60;;;;;;5029281;28;19951;-60
2023/04/24 12:35:58;;;;;;;;;;;16.00;62.60;;;;;;5029185;28;20329;-60
2023/04/24 12:38:24;;;;;;;;;;;15.90;62.50;;;;;;5028753;28;19917;-60
2023/04/24 12:41:01;;;;;;;;;;;15.80;62.60;;;;;;5029041;28;19913;-61
2023/04/24 12:43:27;;;;;;;;;;;15.80;63.10;;;;;;5036562;28;20380;-60
2023/04/24 12:45:52;;;;;;;;;;;15.80;63.60;;;;;;5047808;28;19912;-60
2023/04/24 12:48:17;;;;;;;;;;;15.90;63.60;;;;;;5048270;28;20000;-60
2023/04/24 12:50:43;;;;;;;;;;;15.90;63.70;;;;;;5030071;28;19988;-60
2023/04/24 12:53:09;;;;;;;;;;;15.90;63.80;;;;;;5028947;28;19953;-60
2023/04/24 12:55:35;;;;;;;;;;;15.90;63.80;;;;;;5027539;28;19920;-60
2023/04/24 12:58:01;;;;;;;;;;;15.90;64.00;;;;;;5028600;28;19913;-62
2023/04/24 13:00:27;;;;;;;;;;;16.00;63.90;;;;;;5013026;28;19913;-60
2023/04/24 13:02:52;;;;;;;;;;;16.00;64.20;;;;;;5008879;28;19914;-60
2023/04/24 13:05:18;;;;;;;;;;;16.00;63.70;;;;;;5022447;28;19917;-60
2023/04/24 13:07:43;;;;;;;;;;;16.00;63.70;;;;;;5028419;28;19940;-61
2023/04/24 13:10:09;;;;;;;;;;;16.00;63.60;;;;;;5026477;28;20197;-60
2023/04/24 13:12:34;;;;;;;;;;;16.00;64.00;;;;;;5026839;28;19943;-60
2023/04/24 13:15:00;;;;;;;;;;;16.10;64.30;;;;;;5024474;28;19922;-61
2023/04/24 13:17:26;;;;;;;;;;;16.10;63.80;;;;;;5008638;28;20329;-61
2023/04/24 13:19:54;;;;;;;;;;;16.10;64.10;;;;;;5019732;28;19924;-60
2023/04/24 13:22:20;;;;;;;;;;;16.10;64.00;;;;;;5028066;28;19919;-60
2023/04/24 13:24:48;;;;;;;;;;;16.10;63.90;;;;;;5028485;28;20381;-61
2023/04/24 13:27:13;;;;;;;;;;;16.00;63.70;;;;;;5028228;28;19910;-61
2023/04/24 13:29:39;;;;;;;;;;;16.00;63.60;;;;;;5028734;28;19924;-61
2023/04/24 13:32:05;;;;;;;;;;;16.00;63.50;;;;;;5027784;28;19909;-61
2023/04/24 13:34:31;;;;;;;;;;;15.90;63.70;;;;;;5028139;28;20370;-60
2023/04/24 13:36:57;;;;;;;;;;;15.90;64.10;;;;;;5028015;28;19920;-61
2023/04/24 13:39:22;;;;;;;;;;;16.00;64.30;;;;;;5026139;28;20452;-60
2023/04/24 13:41:48;;;;;;;;;;;16.00;64.00;;;;;;5027076;28;19917;-61
2023/04/24 13:44:16;;;;;;;;;;;15.90;63.50;;;;;;5027175;28;21312;-61
2023/04/24 13:46:44;;;;;;;;;;;15.80;63.50;;;;;;5026445;28;20265;-60
2023/04/24 13:49:09;;;;;;;;;;;15.80;63.70;;;;;;5027836;28;19928;-59
2023/04/24 13:51:35;;;;;;;;;;;15.70;63.30;;;;;;5027667;28;19909;-62
2023/04/24 13:54:00;;;;;;;;;;;15.70;63.40;;;;;;5027806;28;19921;-61
2023/04/24 13:56:26;;;;;;;;;;;15.60;63.60;;;;;;5027886;28;20423;-61
2023/04/24 13:58:51;;;;;;;;;;;15.60;64.00;;;;;;5027685;28;19945;-61
2023/04/24 14:01:17;;;;;;;;;;;15.60;64.30;;;;;;5027515;28;20293;-61
2023/04/24 14:03:45;;;;;;;;;;;15.70;64.50;;;;;;5027435;28;19936;-60
2023/04/24 14:06:11;;;;;;;;;;;15.80;64.50;;;;;;5040786;28;20279;-61
2023/04/24 14:08:36;;;;;;;;;;;15.80;64.40;;;;;;5031812;28;19921;-61
2023/04/24 14:11:02;;;;;;;;;;;16.00;64.40;;;;;;5027589;28;20288;-61